Mason Valley Wildlife Refuge, Nevada Weather observations

Data are for 10 minute period ending at time listed.
 Day   Time   Solar   Ave.   Ave.  Ave.  Vector  Max.   Baro.   Total    
  of    of     Rad.   Air    Rel.  Wind   Wind   Wind  Press.  Precip.   
Year   Day            Temp.  Hum.  Speed  Dir.   Gust                    
2016   (PST)  Kw/m2    F      %     mph   deg.    mph    mb.     in.     
-------------------------------------------------------------------------
 179   15:50   0.62   98.0    10    7.0   256    14.4   869.6    0.00 
 179   16:00   0.59   97.5     9    8.8   264    15.7   869.6    0.00 
 179   16:10   0.57   96.9     9    6.7   257    13.3   869.6    0.00 
 179   16:20   0.53   97.3    10    7.4   268    14.2   869.6    0.00 
 179   16:30   0.51   97.3     9    8.1   268    14.3   869.5    0.00 
 179   16:40   0.47   96.8    10    6.9   264    12.7   869.5    0.00 
 179   16:50   0.45   96.9     9    8.2   271    16.7   869.4    0.00 
 179   17:00   0.41   96.8     9    8.0   282    17.4   869.4    0.00 
 179   17:10   0.38   96.6     9    7.0   280    15.9   869.4    0.00 
 179   17:20   0.35   95.5    10    8.3   272    16.5   869.4    0.00 
 179   17:30   0.32   95.0    10    8.0   274    13.8   869.5    0.00 
 179   17:40   0.28   94.5    11    5.4   278    10.0   869.5    0.00 
 179   17:50   0.26   94.1    11    7.5   278    12.4   869.6    0.00 
 179   18:00   0.23   92.8    12    6.3   265    12.6   869.7    0.00 
 179   18:10   0.20   92.2    12    6.1   281    10.2   869.7    0.00 
 179   18:20   0.18   91.3    13    5.6   274    10.4   869.8    0.00 
 179   18:30   0.15   90.9    12    6.0   279     9.9   869.8    0.00 
 179   18:40   0.12   90.8    12    4.8   282    11.9   869.9    0.00 
 179   18:50   0.10   89.4    13    2.9   300     5.8   869.9    0.00 
 179   19:00   0.07   87.9    14    3.8   309     7.2   870.0    0.00 
 179   19:10   0.02   86.2    14    4.4   318     8.2   870.0    0.00 
 179   19:20   0.01   85.3    14    4.5   307     8.1   870.0    0.00 
 179   19:30   0.01   84.3    14    4.7   306     8.1   870.0    0.00 
 179   19:40   0.00   83.3    15    3.2   290     7.5   870.1    0.00 
 179   19:50   0.00   81.5    16    3.2   288     5.3   870.0    0.00 
 179   20:00   0.00   81.7    15    4.0   302     7.6   870.0    0.00 
 179   20:10   0.00   80.8    15    3.5   293     7.5   870.0    0.00 
 179   20:20   0.00   80.6    15    3.8   307     8.0   870.1    0.00 
 179   20:30   0.00   80.5    15    4.0   317     6.5   870.2    0.00 
 179   20:40   0.00   79.3    16    2.9   315     5.5   870.3    0.00 
 179   20:50   0.00   80.0    16    4.4   325     7.5   870.4    0.00 
 179   21:00   0.00   78.7    16    3.7   324     6.1   870.5    0.00 
 179   21:10   0.00   78.2    16    4.6   340     7.2   870.5    0.00 
 179   21:20   0.00   76.5    17    3.0   349     5.6   870.5    0.00 
 179   21:30   0.00   75.9    17    4.5   351     5.6   870.6    0.00 
 179   21:40   0.00   77.6    16    4.5   337     5.6   870.6    0.00 
 179   21:50   0.00   77.6    16    4.9   328     7.5   870.6    0.00 
 179   22:00   0.00   77.9    16    5.1   322     8.0   870.6    0.00 
 179   22:10   0.00   76.7    18    3.5   312     5.3   870.6    0.00 
 179   22:20   0.00   75.8    20    3.7   301     4.7   870.6    0.00 
 179   22:30   0.00   73.8    22    3.1   290     4.0   870.6    0.00 
 179   22:40   0.00   72.1    23    3.6   286     5.4   870.6    0.00 
 179   22:50   0.00   71.1    24    3.6   278     5.0   870.7    0.00 
 179   23:00   0.00   69.3    28    3.6   267     5.6   870.8    0.00 
 179   23:10   0.00   68.1    31    3.5   215     5.8   870.9    0.00 
 179   23:20   0.00   66.3    29    3.8   157     6.1   871.0    0.00 
 179   23:30   0.00   66.4    30    2.4   204     3.9   871.0    0.00 
 179   23:40   0.00   65.0    36    3.4   229     4.3   871.0    0.00 
 179   23:50   0.00   65.7    32    3.1   234     4.3   871.0    0.00 
 180    0:00   0.00   69.2    27    3.4   243     4.2   871.0    0.00 
 180    0:10   0.00   68.5    29    3.0   234     4.3   871.1    0.00 
 180    0:20   0.00   68.9    28    2.6   251     3.8   871.1    0.00 
 180    0:30   0.00   68.7    28    2.7   234     3.3   871.2    0.00 
 180    0:40   0.00   66.6    34    2.9   212     4.2   871.3    0.00 
 180    0:50   0.00   61.5    45    2.9   190     4.0   871.3    0.00 
 180    1:00   0.00   60.8    44    2.3   198     4.7   871.3    0.00 
 180    1:10   0.00   59.7    44    1.9   197     2.6   871.3    0.00 
 180    1:20   0.00   60.4    42    2.3   196     3.2   871.5    0.00 
 180    1:30   0.00   63.8    37    3.3   235     4.4   871.5    0.00 
 180    1:40   0.00   66.7    32    4.4   251     5.7   871.5    0.00 
 180    1:50   0.00   64.2    38    4.8   251     6.1   871.5    0.00 
 180    2:00   0.00   64.7    35    4.2   245     5.4   871.6    0.00 
 180    2:10   0.00   65.5    34    4.4   244     5.6   871.7    0.00 
 180    2:20   0.00   65.6    33    4.7   246     6.9   871.7    0.00 
 180    2:30   0.00   65.5    33    3.6   265     4.8   871.8    0.00 
 180    2:40   0.00   58.4    44    2.3    69     3.4   871.8    0.00 
 180    2:50   0.00   56.7    51    1.9    54     4.5   871.8    0.00 
 180    3:00   0.00   55.0    59    3.2    18     5.0   871.8    0.00 
 180    3:10   0.00   56.3    61    2.4    10     3.4   871.8    0.00 
 180    3:20   0.00   56.6    59    0.8    20     2.3   871.9    0.00 
 180    3:30   0.00   54.8    60    1.2   147     2.2   871.9    0.00 
 180    3:40   0.00   54.3    61    2.5   193     3.5   871.8    0.00 
 180    3:50   0.00   53.5    65    2.2   194     3.1   871.8    0.00 
 180    4:00   0.00   55.3    56    3.3   177     4.7   871.9    0.00 
 180    4:10   0.00   54.9    55    2.8   166     4.1   872.0    0.00 
 180    4:20   0.00   54.2    54    3.5   160     5.5   872.0    0.00 
 180    4:30   0.00   53.8    57    2.4   178     4.2   872.1    0.00 
 180    4:40   0.01   54.3    56    1.2   187     1.9   872.1    0.00 
 180    4:50   0.01   55.3    52    1.7   277     4.4   872.2    0.00 
 180    5:00   0.03   54.7    53    1.2    37     3.5   872.3    0.00 
 180    5:10   0.04   53.3    54    3.5    19     4.9   872.4    0.00 
 180    5:20   0.06   53.3    58    2.8     4     4.3   872.5    0.00 
 180    5:30   0.08   56.0    53    2.9    28     3.9   872.5    0.00 
 180    5:40   0.10   58.9    49    1.2   356     3.0   872.6    0.00 
 180    5:50   0.12   62.1    47    0.2   137     0.8   872.6    0.00 
 180    6:00   0.15   64.3    44    0.6   141     1.5   872.6    0.00 
 180    6:10   0.17   65.8    39    1.1   127     2.0   872.6    0.00 
 180    6:20   0.20   68.7    31    1.3    73     2.6   872.6    0.00 
 180    6:30   0.23   70.3    29    2.4   101     3.7   872.6    0.00 
 180    6:40   0.26   71.4    31    1.8   169     3.1   872.6    0.00 
 180    6:50   0.29   71.6    30    1.7   208     2.9   872.5    0.00 
 180    7:00   0.32   72.4    29    1.2   209     2.3   872.5    0.00 
 180    7:10   0.35   75.4    25    0.6   189     2.1   872.4    0.00 
 180    7:20   0.38   77.2    23    0.9   221     2.1   872.4    0.00 
 180    7:30   0.41   79.1    22    1.3   305     2.9   872.3    0.00 
 180    7:40   0.44   78.6    23    2.3   349     4.5   872.1    0.00 
 180    7:50   0.47   79.5    23    1.5    10     3.1   872.1    0.00 
 180    8:00   0.50   81.3    22    2.2    32     4.2   872.1    0.00 
 180    8:10   0.53   82.1    21    1.9    96     3.9   872.1    0.00 
 180    8:20   0.56   83.8    19    1.3    50     2.8   872.0    0.00 
 180    8:30   0.58   84.8    19    1.1   248     2.4   872.1    0.00 
 180    8:40   0.61   85.7    16    1.0    34     3.1   872.1    0.00 
 180    8:50   0.63   85.8    16    2.8    25     5.9   872.0    0.00 
 180    9:00   0.66   85.6    14    2.6    40     6.1   872.1    0.00 
 180    9:10   0.68   86.1    14    2.4     7     6.3   872.0    0.00 
 180    9:20   0.71   87.4    13    3.2    66     6.4   872.0    0.00 
 180    9:30   0.73   87.9    13    2.9    40     6.1   872.0    0.00 
 180    9:40   0.75   88.5    13    3.2    49     6.6   872.1    0.00 
 180    9:50   0.77   88.7    13    3.5    51     6.9   872.1    0.00 
 180   10:00   0.79   89.0    14    4.1    91    13.2   872.1    0.00 
 180   10:10   0.81   90.4    13    3.6   142     7.5   872.1    0.00 
 180   10:20   0.83   91.1    12    3.3    92     8.5   872.1    0.00 
 180   10:30   0.84   91.5    12    3.4   121     8.6   872.1    0.00 
 180   10:40   0.86   92.3    12    3.3   107     8.0   872.0    0.00 
 180   10:50   0.87   92.4    11    3.9    33     7.2   871.9    0.00 
 180   11:00   0.88   92.8    11    3.7    39     8.6   871.8    0.00 
 180   11:10   0.89   93.0    11    3.5    82     7.8   871.7    0.00 
 180   11:20   0.90   92.8    10    5.3   357     8.3   871.6    0.00 
 180   11:30   0.91   93.3    10    4.6    40     8.9   871.5    0.00 
 180   11:40   0.91   94.2    10    4.1   160     7.7   871.4    0.00 
 180   11:50   0.92   94.7     9    2.8   182     7.7   871.4    0.00 
 180   12:00   0.92   95.5    10    3.6   273    10.5   871.2    0.00 
 180   12:10   0.92   95.7     9    5.6   316    10.7   871.0    0.00 
 180   12:20   0.92   95.5     9    6.2   319    12.5   871.0    0.00 
 180   12:30   0.92   95.2     9    5.4   325    11.8   870.9    0.00 
 180   12:40   0.92   96.2     9    3.3   307     8.6   870.8    0.00 
 180   12:50   0.93   96.0     9    2.7    70     6.8   870.7    0.00 
 180   13:00   0.92   97.1     9    3.5   230    14.5   870.5    0.00 
 180   13:10   0.91   96.9     9    3.4   289     8.5   870.3    0.00 
 180   13:20   0.90   97.1     9    3.2   339     8.2   870.2    0.00 
 180   13:30   0.89   97.9     9    3.8   346    11.6   870.1    0.00 
 180   13:40   0.88   98.1     9    7.1    18    14.0   869.9    0.00 
 180   13:50   0.87   98.2     8    5.1    48    11.9   869.8    0.00 
 180   14:00   0.86   98.7     8    5.2    40    12.4   869.6    0.00 
 180   14:10   0.85   98.2     8    8.4     4    14.0   869.6    0.00 
 180   14:20   0.84   98.3     8    5.3     3    11.3   869.5    0.00 
 180   14:30   0.71   98.7     8    4.5    72    10.9   869.4    0.00 
 180   14:40   0.62   98.0     8    4.0   115     8.4   869.2    0.00 
 180   14:50   0.71   98.7     7    9.1    18    16.4   869.2    0.00 
 180   15:00   0.79   99.1     8   13.3    23    21.0   869.0    0.00 
 180   15:10   0.77   98.8     8   12.0   355    20.5   869.0    0.00 
 180   15:20   0.72   98.3     8   15.6   347    30.0   868.8    0.00 
 180   15:30   0.70   98.0    10   10.3   318    17.2   869.0    0.00 
 180   15:40   0.66   98.0     8   12.1   339    18.2   869.0    0.00 

Return to Mason Valley Wildlife Refuge graphs page.


Western Regional Climate Center,wrcc@dri.edu